sensor_id;sensor_type;location;lat;lon;timestamp;pressure;altitude;pressure_sealevel;temperature;humidity
42125;BME280;27787;44.594;11.046;2024-02-26T00:01:21;100252.38;;;8.69;78.12
42125;BME280;27787;44.594;11.046;2024-02-26T00:04:05;100252.47;;;8.84;77.00
42125;BME280;27787;44.594;11.046;2024-02-26T00:06:50;100243.75;;;8.94;75.52
42125;BME280;27787;44.594;11.046;2024-02-26T00:09:35;100241.19;;;9.03;75.49
42125;BME280;27787;44.594;11.046;2024-02-26T00:12:21;100235.97;;;9.14;75.51
42125;BME280;27787;44.594;11.046;2024-02-26T00:15:10;100227.22;;;9.23;74.38
42125;BME280;27787;44.594;11.046;2024-02-26T00:17:55;100226.34;;;9.21;73.41
42125;BME280;27787;44.594;11.046;2024-02-26T00:20:39;100224.53;;;9.09;73.74
42125;BME280;27787;44.594;11.046;2024-02-26T00:23:24;100221.81;;;8.92;75.35
42125;BME280;27787;44.594;11.046;2024-02-26T00:26:08;100213.88;;;8.81;77.38
42125;BME280;27787;44.594;11.046;2024-02-26T00:28:53;100198.00;;;8.71;78.14
42125;BME280;27787;44.594;11.046;2024-02-26T00:31:37;100198.88;;;8.64;78.15
42125;BME280;27787;44.594;11.046;2024-02-26T00:34:24;100201.44;;;8.57;77.45
42125;BME280;27787;44.594;11.046;2024-02-26T00:37:08;100185.66;;;8.54;77.84
42125;BME280;27787;44.594;11.046;2024-02-26T00:39:53;100182.13;;;8.51;78.74
42125;BME280;27787;44.594;11.046;2024-02-26T00:42:37;100182.13;;;8.55;79.77
42125;BME280;27787;44.594;11.046;2024-02-26T00:45:22;100183.88;;;8.55;79.73
42125;BME280;27787;44.594;11.046;2024-02-26T00:48:07;100176.84;;;8.48;81.59
42125;BME280;27787;44.594;11.046;2024-02-26T00:50:51;100179.44;;;8.43;82.50
42125;BME280;27787;44.594;11.046;2024-02-26T00:53:35;100178.56;;;8.43;83.07
42125;BME280;27787;44.594;11.046;2024-02-26T00:56:21;100168.03;;;8.41;83.64
42125;BME280;27787;44.594;11.046;2024-02-26T00:59:05;100164.50;;;8.41;83.88
42125;BME280;27787;44.594;11.046;2024-02-26T01:01:50;100164.53;;;8.44;83.78
42125;BME280;27787;44.594;11.046;2024-02-26T01:04:34;100164.53;;;8.44;83.89
42125;BME280;27787;44.594;11.046;2024-02-26T01:07:18;100173.25;;;8.37;82.93
42125;BME280;27787;44.594;11.046;2024-02-26T01:10:03;100165.31;;;8.34;80.57
42125;BME280;27787;44.594;11.046;2024-02-26T01:12:48;100161.78;;;8.33;80.62
42125;BME280;27787;44.594;11.046;2024-02-26T01:15:32;100149.59;;;8.35;80.07
42125;BME280;27787;44.594;11.046;2024-02-26T01:18:17;100158.44;;;8.46;80.07
42125;BME280;27787;44.594;11.046;2024-02-26T01:21:01;100142.66;;;8.49;79.48
42125;BME280;27787;44.594;11.046;2024-02-26T01:23:46;100147.03;;;8.47;79.66
42125;BME280;27787;44.594;11.046;2024-02-26T01:26:30;100145.22;;;8.42;79.65
42125;BME280;27787;44.594;11.046;2024-02-26T01:29:15;100140.81;;;8.35;79.91
42125;BME280;27787;44.594;11.046;2024-02-26T01:31:59;100143.34;;;8.27;80.36
42125;BME280;27787;44.594;11.046;2024-02-26T01:34:44;100138.09;;;8.24;80.73
42125;BME280;27787;44.594;11.046;2024-02-26T01:37:28;100141.59;;;8.21;81.01
42125;BME280;27787;44.594;11.046;2024-02-26T01:40:14;100138.91;;;8.18;81.15
42125;BME280;27787;44.594;11.046;2024-02-26T01:43:04;100131.94;;;8.20;81.35
42125;BME280;27787;44.594;11.046;2024-02-26T01:45:48;100126.72;;;8.31;80.86
42125;BME280;27787;44.594;11.046;2024-02-26T01:48:32;100122.34;;;8.32;79.48
42125;BME280;27787;44.594;11.046;2024-02-26T01:51:17;100110.91;;;8.25;79.60
42125;BME280;27787;44.594;11.046;2024-02-26T01:54:03;100109.97;;;8.12;80.02
42125;BME280;27787;44.594;11.046;2024-02-26T01:56:49;100101.13;;;8.04;80.59
42125;BME280;27787;44.594;11.046;2024-02-26T01:59:35;100099.38;;;8.02;80.59
42125;BME280;27787;44.594;11.046;2024-02-26T02:02:19;100092.44;;;8.10;80.44
42125;BME280;27787;44.594;11.046;2024-02-26T02:05:05;100084.56;;;8.13;81.00
42125;BME280;27787;44.594;11.046;2024-02-26T02:07:51;100088.94;;;8.12;81.75
42125;BME280;27787;44.594;11.046;2024-02-26T02:10:36;100082.81;;;8.13;81.92
42125;BME280;27787;44.594;11.046;2024-02-26T02:13:21;100091.53;;;8.08;82.12
42125;BME280;27787;44.594;11.046;2024-02-26T02:16:05;100090.69;;;8.12;82.95
42125;BME280;27787;44.594;11.046;2024-02-26T02:18:50;100095.13;;;8.22;82.81
42125;BME280;27787;44.594;11.046;2024-02-26T02:21:34;100087.19;;;8.13;82.77
42125;BME280;27787;44.594;11.046;2024-02-26T02:24:18;100074.91;;;8.15;83.62
42125;BME280;27787;44.594;11.046;2024-02-26T02:27:03;100075.78;;;8.11;83.45
42125;BME280;27787;44.594;11.046;2024-02-26T02:29:48;100068.78;;;8.16;83.47
42125;BME280;27787;44.594;11.046;2024-02-26T02:32:32;100066.16;;;8.17;83.14
42125;BME280;27787;44.594;11.046;2024-02-26T02:35:17;100071.47;;;8.20;83.08
42125;BME280;27787;44.594;11.046;2024-02-26T02:38:01;100061.78;;;8.15;82.86
42125;BME280;27787;44.594;11.046;2024-02-26T02:40:45;100060.91;;;8.19;82.96
42125;BME280;27787;44.594;11.046;2024-02-26T02:43:29;100054.78;;;8.14;82.84
42125;BME280;27787;44.594;11.046;2024-02-26T02:46:13;100050.38;;;8.08;83.16
42125;BME280;27787;44.594;11.046;2024-02-26T02:48:57;100051.19;;;7.98;82.80
42125;BME280;27787;44.594;11.046;2024-02-26T02:51:41;100047.59;;;7.88;82.93
42125;BME280;27787;44.594;11.046;2024-02-26T02:54:25;100049.34;;;7.89;83.34
42125;BME280;27787;44.594;11.046;2024-02-26T02:57:10;100052.84;;;7.90;83.32
42125;BME280;27787;44.594;11.046;2024-02-26T02:59:54;100059.94;;;7.95;83.33
42125;BME280;27787;44.594;11.046;2024-02-26T03:02:38;100042.41;;;7.97;83.05
42125;BME280;27787;44.594;11.046;2024-02-26T03:05:23;100043.31;;;8.01;83.26
42125;BME280;27787;44.594;11.046;2024-02-26T03:08:06;100030.19;;;8.06;83.59
42125;BME280;27787;44.594;11.046;2024-02-26T03:10:51;100025.84;;;8.08;83.62
42125;BME280;27787;44.594;11.046;2024-02-26T03:13:35;100024.97;;;8.10;83.73
42125;BME280;27787;44.594;11.046;2024-02-26T03:16:20;100026.72;;;8.13;83.81
42125;BME280;27787;44.594;11.046;2024-02-26T03:19:04;100025.84;;;8.15;84.13
42125;BME280;27787;44.594;11.046;2024-02-26T03:21:48;100031.09;;;8.14;83.76
42125;BME280;27787;44.594;11.046;2024-02-26T03:24:32;100034.59;;;8.13;83.28
42125;BME280;27787;44.594;11.046;2024-02-26T03:27:16;100036.44;;;8.23;82.65
42125;BME280;27787;44.594;11.046;2024-02-26T03:30:02;100033.81;;;8.27;82.97
42125;BME280;27787;44.594;11.046;2024-02-26T03:32:47;100048.72;;;8.33;82.89
42125;BME280;27787;44.594;11.046;2024-02-26T03:35:31;100047.91;;;8.37;83.26
42125;BME280;27787;44.594;11.046;2024-02-26T03:38:15;100049.72;;;8.52;82.60
42125;BME280;27787;44.594;11.046;2024-02-26T03:40:59;100048.03;;;8.60;80.38
42125;BME280;27787;44.594;11.046;2024-02-26T03:43:43;100040.09;;;8.55;79.79
42125;BME280;27787;44.594;11.046;2024-02-26T03:46:29;100042.72;;;8.48;80.06
42125;BME280;27787;44.594;11.046;2024-02-26T03:49:13;100036.53;;;8.41;81.06
42125;BME280;27787;44.594;11.046;2024-02-26T03:51:57;100031.28;;;8.43;81.59
42125;BME280;27787;44.594;11.046;2024-02-26T03:54:41;100032.19;;;8.46;82.21
42125;BME280;27787;44.594;11.046;2024-02-26T03:57:25;100035.72;;;8.57;82.54
42125;BME280;27787;44.594;11.046;2024-02-26T04:00:10;100026.94;;;8.52;83.42
42125;BME280;27787;44.594;11.046;2024-02-26T04:02:57;100026.06;;;8.47;85.58
42125;BME280;27787;44.594;11.046;2024-02-26T04:05:42;100037.47;;;8.55;86.16
42125;BME280;27787;44.594;11.046;2024-02-26T04:08:26;100042.72;;;8.55;86.41
42125;BME280;27787;44.594;11.046;2024-02-26T04:11:10;100035.69;;;8.51;86.27
42125;BME280;27787;44.594;11.046;2024-02-26T04:13:54;100037.44;;;8.49;85.54
42125;BME280;27787;44.594;11.046;2024-02-26T04:16:38;100044.47;;;8.50;85.47
42125;BME280;27787;44.594;11.046;2024-02-26T04:19:23;100043.59;;;8.54;84.52
42125;BME280;27787;44.594;11.046;2024-02-26T04:22:07;100051.50;;;8.56;84.76
42125;BME280;27787;44.594;11.046;2024-02-26T04:24:51;100044.44;;;8.44;86.28
42125;BME280;27787;44.594;11.046;2024-02-26T04:27:35;100047.84;;;8.31;86.99
42125;BME280;27787;44.594;11.046;2024-02-26T04:30:19;100041.63;;;8.17;88.52
42125;BME280;27787;44.594;11.046;2024-02-26T04:33:03;100039.84;;;8.08;89.04
42125;BME280;27787;44.594;11.046;2024-02-26T04:35:48;100037.16;;;7.99;89.99
42125;BME280;27787;44.594;11.046;2024-02-26T04:38:32;100040.72;;;8.09;90.30
42125;BME280;27787;44.594;11.046;2024-02-26T04:41:16;100047.75;;;8.08;89.81
42125;BME280;27787;44.594;11.046;2024-02-26T04:43:59;100041.69;;;8.21;89.82
42125;BME280;27787;44.594;11.046;2024-02-26T04:46:44;100039.94;;;8.25;89.28
42125;BME280;27787;44.594;11.046;2024-02-26T04:49:28;100041.69;;;8.24;89.24
42125;BME280;27787;44.594;11.046;2024-02-26T04:52:12;100051.31;;;8.21;89.55
42125;BME280;27787;44.594;11.046;2024-02-26T04:54:56;100046.94;;;8.26;88.75
42125;BME280;27787;44.594;11.046;2024-02-26T04:57:40;100049.56;;;8.24;87.49
42125;BME280;27787;44.594;11.046;2024-02-26T05:00:24;100046.94;;;8.26;87.43
42125;BME280;27787;44.594;11.046;2024-02-26T05:03:08;100051.34;;;8.30;88.28
42125;BME280;27787;44.594;11.046;2024-02-26T05:05:57;100044.41;;;8.35;87.87
42125;BME280;27787;44.594;11.046;2024-02-26T05:08:42;100048.78;;;8.39;86.56
42125;BME280;27787;44.594;11.046;2024-02-26T05:11:28;100043.53;;;8.36;85.25
42125;BME280;27787;44.594;11.046;2024-02-26T05:14:12;100037.38;;;8.34;84.48
42125;BME280;27787;44.594;11.046;2024-02-26T05:16:56;100041.69;;;8.27;84.78
42125;BME280;27787;44.594;11.046;2024-02-26T05:19:39;100039.06;;;8.32;85.45
42125;BME280;27787;44.594;11.046;2024-02-26T05:22:23;100035.53;;;8.22;85.60
42125;BME280;27787;44.594;11.046;2024-02-26T05:25:07;100039.88;;;8.19;86.59
42125;BME280;27787;44.594;11.046;2024-02-26T05:27:52;100040.75;;;8.18;86.69
42125;BME280;27787;44.594;11.046;2024-02-26T05:30:36;100032.84;;;8.10;87.09
42125;BME280;27787;44.594;11.046;2024-02-26T05:33:23;100039.81;;;8.04;88.08
42125;BME280;27787;44.594;11.046;2024-02-26T05:36:07;100031.97;;;8.11;88.78
42125;BME280;27787;44.594;11.046;2024-02-26T05:38:52;100036.38;;;8.14;88.82
42125;BME280;27787;44.594;11.046;2024-02-26T05:41:36;100032.03;;;8.20;88.72
42125;BME280;27787;44.594;11.046;2024-02-26T05:44:22;100042.50;;;8.14;88.87
42125;BME280;27787;44.594;11.046;2024-02-26T05:47:06;100054.75;;;8.12;88.83
42125;BME280;27787;44.594;11.046;2024-02-26T05:49:50;100059.09;;;8.07;88.40
42125;BME280;27787;44.594;11.046;2024-02-26T05:52:34;100070.53;;;8.17;88.21
42125;BME280;27787;44.594;11.046;2024-02-26T05:55:18;100078.50;;;8.26;87.64
42125;BME280;27787;44.594;11.046;2024-02-26T05:58:02;100078.50;;;8.23;88.51
42125;BME280;27787;44.594;11.046;2024-02-26T06:00:46;100073.97;;;8.01;90.59
42125;BME280;27787;44.594;11.046;2024-02-26T06:03:30;100076.44;;;7.81;91.53
42125;BME280;27787;44.594;11.046;2024-02-26T06:06:15;100078.94;;;7.65;92.31
42125;BME280;27787;44.594;11.046;2024-02-26T06:08:59;100087.66;;;7.57;92.70
42125;BME280;27787;44.594;11.046;2024-02-26T06:11:43;100084.09;;;7.53;93.80
42125;BME280;27787;44.594;11.046;2024-02-26T06:14:27;100080.56;;;7.50;93.75
42125;BME280;27787;44.594;11.046;2024-02-26T06:17:11;100081.41;;;7.44;94.64
42125;BME280;27787;44.594;11.046;2024-02-26T06:19:55;100084.94;;;7.48;94.41
42125;BME280;27787;44.594;11.046;2024-02-26T06:22:40;100082.34;;;7.54;93.33
42125;BME280;27787;44.594;11.046;2024-02-26T06:25:26;100089.41;;;7.58;93.21
42125;BME280;27787;44.594;11.046;2024-02-26T06:28:10;100084.94;;;7.46;94.19
42125;BME280;27787;44.594;11.046;2024-02-26T06:30:54;100095.31;;;7.34;95.28
42125;BME280;27787;44.594;11.046;2024-02-26T06:33:38;100094.34;;;7.27;96.65
42125;BME280;27787;44.594;11.046;2024-02-26T06:36:22;100100.41;;;7.17;97.35
42125;BME280;27787;44.594;11.046;2024-02-26T06:39:07;100098.59;;;7.13;99.06
42125;BME280;27787;44.594;11.046;2024-02-26T06:41:52;100111.81;;;7.21;99.30
42125;BME280;27787;44.594;11.046;2024-02-26T06:44:44;100110.16;;;7.30;99.05
42125;BME280;27787;44.594;11.046;2024-02-26T06:47:28;100109.47;;;7.50;98.72
42125;BME280;27787;44.594;11.046;2024-02-26T06:50:12;100111.31;;;7.61;97.19
42125;BME280;27787;44.594;11.046;2024-02-26T06:52:56;100099.84;;;7.55;97.83
42125;BME280;27787;44.594;11.046;2024-02-26T06:55:40;100103.25;;;7.42;97.95
42125;BME280;27787;44.594;11.046;2024-02-26T06:58:24;100093.44;;;7.22;97.49
42125;BME280;27787;44.594;11.046;2024-02-26T07:01:08;100104.66;;;7.06;98.53
42125;BME280;27787;44.594;11.046;2024-02-26T07:03:55;100111.53;;;6.95;99.86
42125;BME280;27787;44.594;11.046;2024-02-26T07:06:38;100107.06;;;6.88;99.65
42125;BME280;27787;44.594;11.046;2024-02-26T07:09:23;100106.19;;;6.89;100.00
42125;BME280;27787;44.594;11.046;2024-02-26T07:12:07;100107.06;;;6.89;100.00
42125;BME280;27787;44.594;11.046;2024-02-26T07:14:51;100095.84;;;7.01;99.31
42125;BME280;27787;44.594;11.046;2024-02-26T07:17:36;100101.06;;;6.98;100.00
42125;BME280;27787;44.594;11.046;2024-02-26T07:20:20;100086.09;;;6.89;100.00
42125;BME280;27787;44.594;11.046;2024-02-26T07:23:05;100095.78;;;6.96;100.00
42125;BME280;27787;44.594;11.046;2024-02-26T07:25:51;100124.84;;;7.15;100.00
42125;BME280;27787;44.594;11.046;2024-02-26T07:28:37;100125.84;;;7.24;100.00
42125;BME280;27787;44.594;11.046;2024-02-26T07:31:21;100105.84;;;7.37;100.00
42125;BME280;27787;44.594;11.046;2024-02-26T07:34:05;100116.44;;;7.48;100.00
42125;BME280;27787;44.594;11.046;2024-02-26T07:36:50;100106.03;;;7.58;100.00
42125;BME280;27787;44.594;11.046;2024-02-26T07:39:36;100110.47;;;7.65;100.00
42125;BME280;27787;44.594;11.046;2024-02-26T07:42:20;100135.91;;;7.69;100.00
42125;BME280;27787;44.594;11.046;2024-02-26T07:45:05;100096.53;;;7.73;100.00
42125;BME280;27787;44.594;11.046;2024-02-26T07:47:49;100109.69;;;7.79;99.51
42125;BME280;27787;44.594;11.046;2024-02-26T07:50:38;100122.91;;;7.83;99.80
42125;BME280;27787;44.594;11.046;2024-02-26T07:53:22;100122.03;;;7.86;100.00
42125;BME280;27787;44.594;11.046;2024-02-26T07:56:06;100102.78;;;7.87;100.00
42125;BME280;27787;44.594;11.046;2024-02-26T07:58:51;100103.66;;;7.92;100.00
42125;BME280;27787;44.594;11.046;2024-02-26T08:01:35;100111.56;;;7.92;100.00
42125;BME280;27787;44.594;11.046;2024-02-26T08:04:23;100105.47;;;7.96;100.00
42125;BME280;27787;44.594;11.046;2024-02-26T08:07:07;100106.38;;;7.99;100.00
42125;BME280;27787;44.594;11.046;2024-02-26T08:09:52;100091.56;;;8.14;100.00
42125;BME280;27787;44.594;11.046;2024-02-26T08:12:36;100076.75;;;8.29;100.00
42125;BME280;27787;44.594;11.046;2024-02-26T08:15:21;100080.38;;;8.42;99.25
42125;BME280;27787;44.594;11.046;2024-02-26T08:18:05;100074.28;;;8.55;98.83
42125;BME280;27787;44.594;11.046;2024-02-26T08:20:49;100079.59;;;8.66;97.39
42125;BME280;27787;44.594;11.046;2024-02-26T08:23:34;100077.00;;;8.74;95.67
42125;BME280;27787;44.594;11.046;2024-02-26T08:26:18;100060.34;;;8.81;94.69
42125;BME280;27787;44.594;11.046;2024-02-26T08:29:04;100058.63;;;8.89;94.11
42125;BME280;27787;44.594;11.046;2024-02-26T08:31:49;100049.03;;;8.99;94.23
42125;BME280;27787;44.594;11.046;2024-02-26T08:34:33;100043.75;;;9.00;93.69
42125;BME280;27787;44.594;11.046;2024-02-26T08:37:17;100042.00;;;9.04;93.72
42125;BME280;27787;44.594;11.046;2024-02-26T08:40:01;100040.22;;;9.09;93.89
42125;BME280;27787;44.594;11.046;2024-02-26T08:42:45;100036.75;;;9.13;94.15
42125;BME280;27787;44.594;11.046;2024-02-26T08:45:29;100035.88;;;9.22;95.06
42125;BME280;27787;44.594;11.046;2024-02-26T08:48:13;100037.63;;;9.32;95.76
42125;BME280;27787;44.594;11.046;2024-02-26T08:50:57;100030.63;;;9.40;95.17
42125;BME280;27787;44.594;11.046;2024-02-26T08:53:41;100029.75;;;9.45;94.76
42125;BME280;27787;44.594;11.046;2024-02-26T08:56:25;100033.25;;;9.48;93.96
42125;BME280;27787;44.594;11.046;2024-02-26T08:59:09;100031.50;;;9.51;93.75
42125;BME280;27787;44.594;11.046;2024-02-26T09:01:53;100022.72;;;9.54;92.93
42125;BME280;27787;44.594;11.046;2024-02-26T09:04:38;100029.75;;;9.58;93.12
42125;BME280;27787;44.594;11.046;2024-02-26T09:07:22;100027.13;;;9.64;93.83
42125;BME280;27787;44.594;11.046;2024-02-26T09:10:06;100019.19;;;9.67;93.34
42125;BME280;27787;44.594;11.046;2024-02-26T09:12:54;100020.06;;;9.73;93.54
42125;BME280;27787;44.594;11.046;2024-02-26T09:15:38;100020.06;;;9.80;93.71
42125;BME280;27787;44.594;11.046;2024-02-26T09:18:23;100007.75;;;9.85;93.68
42125;BME280;27787;44.594;11.046;2024-02-26T09:21:07;100010.38;;;9.88;93.81
42125;BME280;27787;44.594;11.046;2024-02-26T09:23:52;100018.28;;;9.85;92.60
42125;BME280;27787;44.594;11.046;2024-02-26T09:26:37;100012.13;;;9.84;93.33
42125;BME280;27787;44.594;11.046;2024-02-26T09:29:21;100025.31;;;9.86;93.44
42125;BME280;27787;44.594;11.046;2024-02-26T09:32:06;100025.31;;;9.84;93.82
42125;BME280;27787;44.594;11.046;2024-02-26T09:34:50;100025.31;;;9.81;94.08
42125;BME280;27787;44.594;11.046;2024-02-26T09:37:34;100003.38;;;9.79;94.49
42125;BME280;27787;44.594;11.046;2024-02-26T09:40:20;100008.63;;;9.84;95.48
42125;BME280;27787;44.594;11.046;2024-02-26T09:43:04;100013.00;;;9.85;95.15
42125;BME280;27787;44.594;11.046;2024-02-26T09:45:53;100010.38;;;9.85;95.18
42125;BME280;27787;44.594;11.046;2024-02-26T09:48:38;100012.13;;;9.89;95.20
42125;BME280;27787;44.594;11.046;2024-02-26T09:51:23;100003.31;;;9.96;95.17
42125;BME280;27787;44.594;11.046;2024-02-26T09:54:12;100006.84;;;10.04;94.87
42125;BME280;27787;44.594;11.046;2024-02-26T09:57:00;100012.09;;;10.09;94.37
42125;BME280;27787;44.594;11.046;2024-02-26T09:59:48;100014.69;;;10.15;94.01
42125;BME280;27787;44.594;11.046;2024-02-26T10:02:35;100005.91;;;10.17;93.62
42125;BME280;27787;44.594;11.046;2024-02-26T10:05:21;100013.81;;;10.19;93.57
42125;BME280;27787;44.594;11.046;2024-02-26T10:08:06;100014.69;;;10.21;93.36
42125;BME280;27787;44.594;11.046;2024-02-26T10:10:52;100019.09;;;10.23;93.28
42125;BME280;27787;44.594;11.046;2024-02-26T10:13:38;100018.22;;;10.24;92.14
42125;BME280;27787;44.594;11.046;2024-02-26T10:16:24;100015.56;;;10.26;91.11
42125;BME280;27787;44.594;11.046;2024-02-26T10:19:08;100018.22;;;10.24;89.08
42125;BME280;27787;44.594;11.046;2024-02-26T10:21:57;100019.06;;;10.28;89.13
42125;BME280;27787;44.594;11.046;2024-02-26T10:24:41;100019.09;;;10.29;88.29
42125;BME280;27787;44.594;11.046;2024-02-26T10:27:28;100023.50;;;10.29;87.50
42125;BME280;27787;44.594;11.046;2024-02-26T10:30:16;100016.44;;;10.31;87.77
42125;BME280;27787;44.594;11.046;2024-02-26T10:33:04;100018.19;;;10.33;87.78
42125;BME280;27787;44.594;11.046;2024-02-26T10:35:48;100010.28;;;10.35;88.13
42125;BME280;27787;44.594;11.046;2024-02-26T10:38:32;100011.13;;;10.40;88.60
42125;BME280;27787;44.594;11.046;2024-02-26T10:41:17;100017.28;;;10.42;88.53
42125;BME280;27787;44.594;11.046;2024-02-26T10:44:01;100013.75;;;10.45;88.52
42125;BME280;27787;44.594;11.046;2024-02-26T10:46:48;100004.09;;;10.45;88.72
42125;BME280;27787;44.594;11.046;2024-02-26T10:49:36;100009.34;;;10.47;88.10
42125;BME280;27787;44.594;11.046;2024-02-26T10:52:22;100002.31;;;10.46;87.74
42125;BME280;27787;44.594;11.046;2024-02-26T10:55:15;100002.31;;;10.47;88.07
42125;BME280;27787;44.594;11.046;2024-02-26T10:57:59;99997.03;;;10.49;88.03
42125;BME280;27787;44.594;11.046;2024-02-26T11:00:45;99990.84;;;10.51;88.61
42125;BME280;27787;44.594;11.046;2024-02-26T11:03:31;99999.66;;;10.55;88.51
42125;BME280;27787;44.594;11.046;2024-02-26T11:06:19;100003.16;;;10.55;88.44
42125;BME280;27787;44.594;11.046;2024-02-26T11:09:04;99999.66;;;10.55;88.47
42125;BME280;27787;44.594;11.046;2024-02-26T11:11:51;100001.38;;;10.54;88.05
42125;BME280;27787;44.594;11.046;2024-02-26T11:14:39;99999.63;;;10.53;87.55
42125;BME280;27787;44.594;11.046;2024-02-26T11:17:26;99994.34;;;10.52;87.26
42125;BME280;27787;44.594;11.046;2024-02-26T11:20:11;99995.22;;;10.54;87.32
42125;BME280;27787;44.594;11.046;2024-02-26T11:22:57;99985.53;;;10.54;87.64
42125;BME280;27787;44.594;11.046;2024-02-26T11:25:41;99988.19;;;10.56;88.35
42125;BME280;27787;44.594;11.046;2024-02-26T11:28:27;99985.56;;;10.57;89.13
42125;BME280;27787;44.594;11.046;2024-02-26T11:31:12;99980.25;;;10.59;89.75
42125;BME280;27787;44.594;11.046;2024-02-26T11:33:57;99993.47;;;10.59;88.55
42125;BME280;27787;44.594;11.046;2024-02-26T11:36:42;99984.66;;;10.58;88.78
42125;BME280;27787;44.594;11.046;2024-02-26T11:39:26;99975.84;;;10.61;88.55
42125;BME280;27787;44.594;11.046;2024-02-26T11:42:14;99974.97;;;10.62;87.76
42125;BME280;27787;44.594;11.046;2024-02-26T11:44:59;99972.31;;;10.62;87.85
42125;BME280;27787;44.594;11.046;2024-02-26T11:47:55;99964.41;;;10.62;87.94
42125;BME280;27787;44.594;11.046;2024-02-26T11:50:47;99974.97;;;10.60;87.90
42125;BME280;27787;44.594;11.046;2024-02-26T11:53:31;99967.06;;;10.60;88.19
42125;BME280;27787;44.594;11.046;2024-02-26T11:59:09;99967.06;;;10.60;89.01
42125;BME280;27787;44.594;11.046;2024-02-26T12:01:53;99964.41;;;10.60;89.47
42125;BME280;27787;44.594;11.046;2024-02-26T12:04:38;99968.84;;;10.57;90.46
42125;BME280;27787;44.594;11.046;2024-02-26T12:07:22;99957.44;;;10.55;90.78
42125;BME280;27787;44.594;11.046;2024-02-26T12:13:13;99959.16;;;10.57;92.57
42125;BME280;27787;44.594;11.046;2024-02-26T12:15:58;99953.84;;;10.62;93.26
42125;BME280;27787;44.594;11.046;2024-02-26T12:18:44;99948.53;;;10.67;94.22
42125;BME280;27787;44.594;11.046;2024-02-26T12:21:29;99951.13;;;10.76;95.31
42125;BME280;27787;44.594;11.046;2024-02-26T12:24:14;99946.69;;;10.82;95.32
42125;BME280;27787;44.594;11.046;2024-02-26T12:27:01;99951.06;;;10.86;95.26
42125;BME280;27787;44.594;11.046;2024-02-26T12:29:47;99948.44;;;10.85;95.67
42125;BME280;27787;44.594;11.046;2024-02-26T12:32:31;99947.56;;;10.84;96.29
42125;BME280;27787;44.594;11.046;2024-02-26T12:35:16;99944.06;;;10.82;96.37
42125;BME280;27787;44.594;11.046;2024-02-26T12:38:01;99939.66;;;10.81;96.21
42125;BME280;27787;44.594;11.046;2024-02-26T12:40:48;99929.97;;;10.79;96.28
42125;BME280;27787;44.594;11.046;2024-02-26T12:43:32;99931.75;;;10.81;96.94
42125;BME280;27787;44.594;11.046;2024-02-26T12:46:17;99914.97;;;10.85;98.25
42125;BME280;27787;44.594;11.046;2024-02-26T12:49:01;99922.84;;;10.90;100.00
42125;BME280;27787;44.594;11.046;2024-02-26T12:51:45;99918.41;;;10.93;100.00
42125;BME280;27787;44.594;11.046;2024-02-26T12:54:32;99914.03;;;10.96;100.00
42125;BME280;27787;44.594;11.046;2024-02-26T12:57:17;99918.38;;;11.00;100.00
42125;BME280;27787;44.594;11.046;2024-02-26T13:00:03;99935.13;;;10.99;100.00
42125;BME280;27787;44.594;11.046;2024-02-26T13:02:49;99934.25;;;10.97;100.00
42125;BME280;27787;44.594;11.046;2024-02-26T13:05:34;99938.69;;;10.95;100.00
42125;BME280;27787;44.594;11.046;2024-02-26T13:08:19;99937.78;;;10.92;100.00
42125;BME280;27787;44.594;11.046;2024-02-26T13:11:04;99933.41;;;10.91;100.00
42125;BME280;27787;44.594;11.046;2024-02-26T13:13:48;99936.91;;;10.93;100.00
42125;BME280;27787;44.594;11.046;2024-02-26T13:16:33;99934.25;;;10.97;100.00
42125;BME280;27787;44.594;11.046;2024-02-26T13:19:17;99930.75;;;10.96;100.00
42125;BME280;27787;44.594;11.046;2024-02-26T13:22:05;99926.31;;;10.98;100.00
42125;BME280;27787;44.594;11.046;2024-02-26T13:24:55;99925.38;;;11.04;100.00
42125;BME280;27787;44.594;11.046;2024-02-26T13:27:39;99916.56;;;11.09;100.00
42125;BME280;27787;44.594;11.046;2024-02-26T13:30:23;99916.53;;;11.12;100.00
42125;BME280;27787;44.594;11.046;2024-02-26T13:33:12;99909.44;;;11.16;100.00
42125;BME280;27787;44.594;11.046;2024-02-26T13:35:57;99901.50;;;11.20;100.00
42125;BME280;27787;44.594;11.046;2024-02-26T13:38:51;99903.16;;;11.29;100.00
42125;BME280;27787;44.594;11.046;2024-02-26T13:41:36;99903.91;;;11.42;100.00
42125;BME280;27787;44.594;11.046;2024-02-26T13:44:20;99900.28;;;11.52;100.00
42125;BME280;27787;44.594;11.046;2024-02-26T13:47:05;99893.16;;;11.62;100.00
42125;BME280;27787;44.594;11.046;2024-02-26T13:49:49;99892.16;;;11.69;100.00
42125;BME280;27787;44.594;11.046;2024-02-26T13:52:33;99888.63;;;11.71;100.00
42125;BME280;27787;44.594;11.046;2024-02-26T13:55:18;99899.22;;;11.70;100.00
42125;BME280;27787;44.594;11.046;2024-02-26T13:58:02;99888.63;;;11.70;100.00
42125;BME280;27787;44.594;11.046;2024-02-26T14:00:47;99882.50;;;11.66;100.00
42125;BME280;27787;44.594;11.046;2024-02-26T14:03:32;99867.56;;;11.64;100.00
42125;BME280;27787;44.594;11.046;2024-02-26T14:06:16;99868.47;;;11.63;100.00
42125;BME280;27787;44.594;11.046;2024-02-26T14:09:00;99872.00;;;11.62;100.00
42125;BME280;27787;44.594;11.046;2024-02-26T14:11:47;99873.78;;;11.61;100.00
42125;BME280;27787;44.594;11.046;2024-02-26T14:14:32;99885.25;;;11.60;100.00
42125;BME280;27787;44.594;11.046;2024-02-26T14:17:19;99878.19;;;11.58;100.00
42125;BME280;27787;44.594;11.046;2024-02-26T14:20:04;99881.72;;;11.57;100.00
42125;BME280;27787;44.594;11.046;2024-02-26T14:22:52;99872.09;;;11.52;100.00
42125;BME280;27787;44.594;11.046;2024-02-26T14:25:37;99866.81;;;11.52;100.00